Mansfield, TX (76063)

7:08 PM CST on December 26, 2014 (GMT -0600)
Cest La Vie | Change Station
CLOSE
Current Station
Personal Weather Station
Location: Mansfield, TX
Elevation: 643 ft
Nearby Weather Stations

Elev 643 ft 32.57 °N, 97.17 °W | Updated 9 minutes ago

Mostly Cloudy
Mostly Cloudy
62.6 °F
Feels Like 62.6 °F
N
3.2
Wind Variable Wind from SE

Today
High -- | Low -- °F
--% Chance of Precip.
Yesterday
High -- | Low -- °F
Precip. -- in
7:28 AM 5:29 PM
Waxing Crescent, 31% visible
Pressure 29.90 in
Visibility 10.0 miles
Clouds Mostly Cloudy 1700 ft
Overcast 2300 ft
Dew Point 57 °F
Humidity 83%
Rainfall 0.00 in
Snow Depth Not available.
UV 0 out of 12
Pollen 10.50 out of 12
Air Quality Not available.
Flu Activity Not available.
METAR KGKY 270053Z 12008KT 10SM BKN017 OVC023 19/15 A2991 RMK AO2 SLP124 T01890150

More Conditions Fewer Conditions

Pressure 29.90 in
Visibility 10.0 miles
Clouds Mostly Cloudy 1700 ft
Overcast 2300 ft
Dew Point 57 °F
Humidity 83%
Rainfall 0.00 in
Snow Depth Not available.
UV 0 out of 12
Pollen 10.50 out of 12
Air Quality Not available.
Flu Activity Not available.
METAR KGKY 270053Z 12008KT 10SM BKN017 OVC023 19/15 A2991 RMK AO2 SLP124 T01890150

More Conditions Fewer Conditions

10-Day Weather Forecast

Almanac

Astronomy

Dec. 26, 2014 Rise Set
Actual Time
Civil Twilight
Nautical Twilight
Astronomical Twilight
Moon
Length of Visible Light
Length of Day
Tomorrow will be .
, % of the Moon is Illuminated

Today's Extremes

State Highs State Lows

Community

WunderPhotos

Upload Photos

1,780,800 photos uploaded!

WunderBlogs® & News

Nearby

Air Quality

  Air Quality AQ Index Pollutant
Not available.

Snow Depth

Station Depth Elevation

Earthquake Activity

City Distance Mag. Time & Date
Minimum magnitude displayed is 2.5.

Coastal Water Temperatures

Place Temperature

Nearby Weather Stations